Mono Lake, California
Current Conditions -  °F | °C
As of 1:35 PM on Friday 28 Nov 2014 (Local Time) from KMMH Reporting Station
Clear Clear  
Wind Chill: 59°   Ceiling: Unl
Heat Index: 59°   Visibility: 10mi
Dew Point:   Wind: 14mph
Humidity: 9%   Direction: 220°SW
Pressure: 30.07"   Gusts: 31mph
Location:  38.0132°N, 118.966°W
Report Text: KMMH 282135Z AUTO 22012G27KT 10SM CLR 15/M18 A3007 RMK AO1
Loading
Personal Weather Stations






























Interactive Weather Map New forecast layout! Learn more

10-Day Weather Forecast

Advertisements
Track Severe Weather on mobile